Terminal Aerodrome Forecast
Issued by NWS Wilmington, OH

Current Version | Previous Version | Graphics & Text | Print | Product List | Glossary On
Versions: 1 2 3 4 5 6 7 8 9 10 11 12 13 14 15 16 17 18 19 20 21 22 23 24 25 26 27 28 29 30 31 32 33
000
FTUS41 KILN 272300 AAA
TAFCVG
TAF AMD
KCVG 272357Z 2800/2906 29012G22KT P6SM -SHRA SCT025 BKN040
     FM280015 30025G40KT 1SM TSRA BKN025CB
     FM280030 30012G25KT 3SM -SHRA VCTS SCT025CB BKN040
     FM280100 29012G22KT P6SM SCT050
     FM280300 30012KT P6SM FEW040
     FM280900 30008KT P6SM SCT015
     FM281500 31011KT P6SM BKN025
     FM281700 32011G19KT P6SM -SHRA BKN035
     FM282300 32010KT P6SM BKN035
     FM290200 33006KT P6SM SCT035=

USA.gov is the U.S. government's official web portal to all federal, state and local government web resources and services.